createdAt,value
2023-02-11T00:01:18.448Z,11.55
2023-02-11T00:03:45.152Z,10.84
2023-02-11T00:06:13.829Z,12.16
2023-02-11T00:08:47.777Z,12.08
2023-02-11T00:11:14.391Z,12.30
2023-02-11T00:13:49.130Z,11.98
2023-02-11T00:16:15.675Z,10.58
2023-02-11T00:18:42.183Z,9.99
2023-02-11T00:21:08.641Z,10.60
2023-02-11T00:23:35.153Z,10.06
2023-02-11T00:26:01.593Z,10.45
2023-02-11T00:28:28.291Z,10.97
2023-02-11T00:30:54.966Z,11.15
2023-02-11T00:33:21.503Z,11.23
2023-02-11T00:35:48.179Z,11.05
2023-02-11T00:38:14.840Z,10.33
2023-02-11T00:40:41.326Z,11.21
2023-02-11T00:43:07.843Z,15.46
2023-02-11T00:45:34.356Z,15.21
2023-02-11T00:48:00.783Z,12.70
2023-02-11T00:50:27.249Z,13.05
2023-02-11T00:52:53.706Z,13.50
2023-02-11T00:55:20.390Z,15.19
2023-02-11T00:57:46.917Z,16.20
2023-02-11T01:00:18.906Z,16.64
2023-02-11T01:02:45.453Z,16.64
2023-02-11T01:05:12.717Z,15.92
2023-02-11T01:07:39.270Z,14.98
2023-02-11T01:10:05.777Z,14.90
2023-02-11T01:12:34.537Z,14.13
2023-02-11T01:20:25.804Z,12.83
2023-02-11T01:25:32.505Z,13.93
2023-02-11T01:30:49.198Z,14.83
2023-02-11T01:33:17.093Z,14.62
2023-02-11T01:35:43.554Z,13.43
2023-02-11T01:38:09.932Z,14.80
2023-02-11T01:40:39.919Z,15.50
2023-02-11T01:43:06.501Z,14.34
2023-02-11T01:45:40.617Z,15.51
2023-02-11T01:48:13.437Z,15.91
2023-02-11T01:50:39.931Z,15.98
2023-02-11T01:53:06.417Z,16.10
2023-02-11T01:55:32.932Z,14.41
2023-02-11T01:57:59.489Z,14.24
2023-02-11T02:00:26.389Z,14.24
2023-02-11T02:02:52.930Z,14.23
2023-02-11T02:05:19.452Z,14.54
2023-02-11T02:07:45.905Z,14.26
2023-02-11T02:10:12.442Z,14.35
2023-02-11T02:12:38.962Z,14.07
2023-02-11T02:15:05.750Z,14.58
2023-02-11T02:17:36.403Z,14.73
2023-02-11T02:20:12.010Z,15.02
2023-02-11T02:22:38.537Z,14.87
2023-02-11T02:25:05.077Z,13.46
2023-02-11T02:27:31.636Z,12.98
2023-02-11T02:29:58.121Z,14.16
2023-02-11T02:32:24.579Z,13.52
2023-02-11T02:34:51.040Z,14.80
2023-02-11T02:37:17.572Z,12.99
2023-02-11T02:39:44.056Z,12.91
2023-02-11T02:42:10.493Z,12.43
2023-02-11T02:44:37.192Z,12.19
2023-02-11T02:47:23.627Z,11.85
2023-02-11T02:49:50.036Z,11.33
2023-02-11T02:52:16.404Z,10.71
2023-02-11T02:54:45.205Z,10.28
2023-02-11T02:57:14.824Z,11.15
2023-02-11T02:59:41.379Z,12.33
2023-02-11T03:02:07.884Z,12.55
2023-02-11T03:04:34.354Z,12.57
2023-02-11T03:07:00.741Z,12.76
2023-02-11T03:09:27.128Z,12.86
2023-02-11T03:12:05.178Z,12.37
2023-02-11T03:14:31.696Z,12.79
2023-02-11T03:17:00.656Z,13.03
2023-02-11T03:19:27.170Z,11.92
2023-02-11T03:21:53.598Z,11.71
2023-02-11T03:24:20.051Z,11.41
2023-02-11T03:26:46.394Z,10.67
2023-02-11T03:29:14.185Z,9.74
2023-02-11T03:31:40.772Z,8.51
2023-02-11T03:34:07.402Z,8.99
2023-02-11T03:36:33.819Z,9.81
2023-02-11T03:39:00.313Z,9.11
2023-02-11T03:41:26.713Z,8.68
2023-02-11T03:43:57.186Z,8.44
2023-02-11T03:46:23.806Z,7.96
2023-02-11T03:48:50.524Z,8.48
2023-02-11T03:51:16.979Z,8.91
2023-02-11T03:53:43.308Z,9.28
2023-02-11T03:56:09.666Z,10.56
2023-02-11T03:58:36.026Z,12.62
2023-02-11T04:01:02.384Z,11.71
2023-02-11T04:03:28.857Z,10.75
2023-02-11T04:05:55.251Z,10.52
2023-02-11T04:08:21.593Z,9.82
2023-02-11T04:10:47.913Z,9.50
2023-02-11T04:13:14.437Z,9.42
2023-02-11T04:15:40.841Z,9.38
2023-02-11T04:18:07.166Z,10.46
2023-02-11T04:20:33.615Z,11.18
2023-02-11T04:22:59.961Z,11.43
2023-02-11T04:25:26.350Z,10.76
2023-02-11T04:27:52.687Z,10.51
2023-02-11T04:30:19.089Z,10.29
2023-02-11T04:32:45.412Z,9.23
2023-02-11T04:35:11.739Z,9.25
2023-02-11T04:37:38.080Z,8.70
2023-02-11T04:40:04.586Z,8.97
2023-02-11T04:42:30.931Z,9.53
2023-02-11T04:44:57.256Z,9.38
2023-02-11T04:47:23.589Z,9.14
2023-02-11T04:49:49.960Z,9.23
2023-02-11T04:52:16.312Z,9.91
2023-02-11T04:54:42.725Z,10.22
2023-02-11T04:57:09.091Z,10.77
2023-02-11T04:59:35.443Z,10.59
2023-02-11T05:02:03.341Z,11.36
2023-02-11T05:04:32.300Z,11.37
2023-02-11T05:09:39.026Z,10.92
2023-02-11T05:12:05.343Z,10.42
2023-02-11T05:14:31.675Z,12.60
2023-02-11T05:16:58.147Z,23.02
2023-02-11T05:19:24.511Z,13.57
2023-02-11T05:22:02.229Z,12.39
2023-02-11T05:24:29.598Z,9.94
2023-02-11T05:26:55.922Z,10.11
2023-02-11T05:29:22.248Z,8.35
2023-02-11T05:31:48.762Z,9.24
2023-02-11T05:34:15.087Z,8.87
2023-02-11T05:36:41.392Z,10.37
2023-02-11T05:39:07.718Z,11.40
2023-02-11T05:41:46.201Z,11.12
2023-02-11T05:44:13.156Z,10.89
2023-02-11T05:46:39.668Z,10.21
2023-02-11T05:49:06.019Z,10.06
2023-02-11T05:51:32.496Z,9.91
2023-02-11T05:54:01.640Z,9.93
2023-02-11T05:56:28.095Z,10.57
2023-02-11T05:58:54.587Z,10.46
2023-02-11T06:01:21.062Z,10.31
2023-02-11T06:03:47.674Z,9.73
2023-02-11T06:06:14.212Z,10.38
2023-02-11T06:08:40.734Z,9.70
2023-02-11T06:11:07.260Z,9.56
2023-02-11T06:13:33.663Z,10.40
2023-02-11T06:16:00.210Z,11.00
2023-02-11T06:18:26.760Z,10.84
2023-02-11T06:20:53.114Z,10.47
2023-02-11T06:23:19.543Z,10.16
2023-02-11T06:26:03.091Z,10.10
2023-02-11T06:28:29.537Z,9.47
2023-02-11T06:30:55.998Z,9.91
2023-02-11T06:33:22.454Z,9.58
2023-02-11T06:35:50.081Z,11.14
2023-02-11T06:38:16.758Z,10.70
2023-02-11T06:40:43.271Z,10.33
2023-02-11T06:43:09.789Z,10.78
2023-02-11T06:45:36.436Z,13.17
2023-02-11T06:48:02.997Z,16.40
2023-02-11T06:50:29.483Z,15.40
2023-02-11T06:52:55.862Z,12.50
2023-02-11T06:55:22.236Z,10.42
2023-02-11T06:57:50.822Z,10.20
2023-02-11T07:00:17.315Z,10.01
2023-02-11T07:02:43.700Z,9.55
2023-02-11T07:05:10.099Z,9.69
2023-02-11T07:07:36.603Z,9.98
2023-02-11T07:10:03.444Z,9.43
2023-02-11T07:12:29.834Z,9.58
2023-02-11T07:14:56.361Z,9.95
2023-02-11T07:17:22.835Z,10.05
2023-02-11T07:19:49.292Z,9.88
2023-02-11T07:22:21.006Z,9.92
2023-02-11T07:24:49.762Z,10.26
2023-02-11T07:27:16.252Z,10.43
2023-02-11T07:29:45.147Z,10.60
2023-02-11T07:32:11.516Z,10.46
2023-02-11T07:34:38.995Z,11.30
2023-02-11T07:37:05.583Z,11.44
2023-02-11T07:39:32.102Z,12.17
2023-02-11T07:41:58.598Z,11.51
2023-02-11T07:44:25.107Z,11.21
2023-02-11T07:46:51.654Z,10.48
2023-02-11T07:49:18.094Z,10.09
2023-02-11T07:51:44.616Z,10.05
2023-02-11T07:54:11.100Z,9.83
2023-02-11T07:56:37.610Z,9.64
2023-02-11T07:59:04.085Z,10.17
2023-02-11T08:01:30.589Z,9.68
2023-02-11T08:04:01.576Z,9.91
2023-02-11T08:06:28.389Z,9.38
2023-02-11T08:08:54.998Z,9.94
2023-02-11T08:11:21.534Z,10.05
2023-02-11T08:13:48.148Z,10.01
2023-02-11T08:16:14.743Z,10.35
2023-02-11T08:18:41.314Z,10.37
2023-02-11T08:21:07.859Z,10.38
2023-02-11T08:23:34.336Z,10.40
2023-02-11T08:26:00.864Z,10.49
2023-02-11T08:28:27.490Z,10.74
2023-02-11T08:30:54.063Z,10.78
2023-02-11T08:33:20.502Z,11.40
2023-02-11T08:35:47.028Z,11.24
2023-02-11T08:38:13.519Z,11.35
2023-02-11T08:40:39.991Z,11.67
2023-02-11T08:43:08.187Z,11.66
2023-02-11T08:45:35.507Z,12.73
2023-02-11T08:50:52.624Z,12.14
2023-02-11T08:58:40.731Z,13.97
2023-02-11T09:01:07.258Z,13.57
2023-02-11T09:03:33.766Z,13.42
2023-02-11T09:06:00.289Z,13.52
2023-02-11T09:08:27.764Z,12.19
2023-02-11T09:10:54.283Z,12.34
2023-02-11T09:13:26.715Z,12.56
2023-02-11T09:15:53.242Z,12.61
2023-02-11T09:21:03.837Z,12.64
2023-02-11T09:23:30.401Z,12.70
2023-02-11T09:25:56.950Z,13.89
2023-02-11T09:28:31.827Z,14.32
2023-02-11T09:30:58.411Z,13.81
2023-02-11T09:33:24.991Z,13.03
2023-02-11T09:35:51.489Z,12.93
2023-02-11T09:38:18.368Z,13.37
2023-02-11T09:40:45.273Z,13.76
2023-02-11T09:43:13.385Z,13.25
2023-02-11T09:45:39.864Z,13.20
2023-02-11T09:48:06.982Z,13.01
2023-02-11T09:50:40.917Z,13.31
2023-02-11T09:53:07.387Z,13.59
2023-02-11T09:55:33.864Z,13.63
2023-02-11T09:58:00.358Z,12.84
2023-02-11T10:00:26.757Z,13.32
2023-02-11T10:02:53.443Z,13.46
2023-02-11T10:05:19.856Z,13.79
2023-02-11T10:07:46.336Z,13.74
2023-02-11T10:10:12.787Z,13.88
2023-02-11T10:12:39.247Z,13.92
2023-02-11T10:15:05.741Z,14.08
2023-02-11T10:17:32.250Z,14.87
2023-02-11T10:19:58.707Z,14.65
2023-02-11T10:22:25.293Z,13.94
2023-02-11T10:24:59.170Z,14.54
2023-02-11T10:27:25.560Z,14.84
2023-02-11T10:29:51.964Z,14.81
2023-02-11T10:32:18.462Z,15.05
2023-02-11T10:34:44.852Z,15.30
2023-02-11T10:37:11.318Z,15.04
2023-02-11T10:39:37.715Z,15.09
2023-02-11T10:42:04.457Z,15.60
2023-02-11T10:44:33.119Z,15.69
2023-02-11T10:47:00.867Z,17.86
2023-02-11T10:49:27.403Z,21.96
2023-02-11T10:51:53.837Z,22.37
2023-02-11T10:54:20.480Z,21.46
2023-02-11T10:56:46.978Z,22.53
2023-02-11T10:59:24.066Z,23.04
2023-02-11T11:01:50.655Z,22.74
2023-02-11T11:04:18.450Z,21.52
2023-02-11T11:06:44.959Z,21.41
2023-02-11T11:09:12.306Z,21.62
2023-02-11T11:11:38.790Z,22.11
2023-02-11T11:14:05.300Z,22.11
2023-02-11T11:16:31.760Z,22.35
2023-02-11T11:18:58.450Z,22.64
2023-02-11T11:21:24.900Z,22.77
2023-02-11T11:26:31.628Z,23.40
2023-02-11T11:28:58.063Z,21.86
2023-02-11T11:31:27.338Z,20.06
2023-02-11T11:33:54.379Z,19.05
2023-02-11T11:36:20.883Z,19.19
2023-02-11T11:38:56.473Z,20.00
2023-02-11T11:41:22.873Z,20.05
2023-02-11T11:43:49.434Z,22.23
2023-02-11T11:46:15.979Z,20.91
2023-02-11T11:48:42.456Z,21.11
2023-02-11T11:51:08.962Z,21.15
2023-02-11T11:53:35.596Z,22.01
2023-02-11T11:56:02.084Z,21.71
2023-02-11T11:58:28.529Z,21.61
2023-02-11T12:00:55.038Z,21.18
2023-02-11T12:03:21.789Z,21.34
2023-02-11T12:05:49.003Z,20.87
2023-02-11T12:08:18.023Z,20.50
2023-02-11T12:10:56.778Z,20.18
2023-02-11T12:13:23.374Z,20.59
2023-02-11T12:15:49.892Z,20.78
2023-02-11T12:18:16.427Z,21.73
2023-02-11T12:20:42.946Z,22.48
2023-02-11T12:23:09.433Z,23.11
2023-02-11T12:25:35.846Z,26.87
2023-02-11T12:28:02.431Z,28.93
2023-02-11T12:30:29.028Z,30.31
2023-02-11T12:32:55.539Z,31.70
2023-02-11T12:35:21.975Z,31.95
2023-02-11T12:37:48.361Z,31.42
2023-02-11T12:40:14.736Z,31.69
2023-02-11T12:42:42.155Z,33.30
2023-02-11T12:45:08.631Z,33.55
2023-02-11T12:47:36.232Z,35.21
2023-02-11T12:50:08.087Z,37.25
2023-02-11T12:52:34.818Z,37.83
2023-02-11T12:55:01.230Z,37.53
2023-02-11T12:57:27.949Z,37.07
2023-02-11T12:59:54.525Z,35.91
2023-02-11T13:02:32.292Z,34.92
2023-02-11T13:04:59.233Z,33.45
2023-02-11T13:07:25.750Z,34.41
2023-02-11T13:09:59.569Z,34.59
2023-02-11T13:12:26.135Z,38.43
2023-02-11T13:14:52.701Z,39.03
2023-02-11T13:17:19.286Z,37.96
2023-02-11T13:19:55.183Z,38.89
2023-02-11T13:22:21.603Z,37.46
2023-02-11T13:25:01.242Z,36.16
2023-02-11T13:27:27.790Z,34.58
2023-02-11T13:29:54.360Z,33.64
2023-02-11T13:32:21.160Z,33.41
2023-02-11T13:34:47.621Z,31.57
2023-02-11T13:37:14.101Z,31.53
2023-02-11T13:39:40.582Z,30.46
2023-02-11T13:42:07.078Z,31.76
2023-02-11T13:44:33.612Z,32.47
2023-02-11T13:47:00.130Z,34.11
2023-02-11T13:49:26.649Z,35.02
2023-02-11T13:51:53.151Z,33.82
2023-02-11T13:54:20.678Z,34.87
2023-02-11T13:56:47.310Z,34.63
2023-02-11T13:59:13.836Z,34.18
2023-02-11T14:01:40.343Z,34.69
2023-02-11T14:04:06.847Z,33.90
2023-02-11T14:06:33.346Z,33.33
2023-02-11T14:08:59.849Z,33.45
2023-02-11T14:11:26.352Z,33.83
2023-02-11T14:13:54.101Z,33.86
2023-02-11T14:16:36.395Z,33.46
2023-02-11T14:19:03.695Z,32.65
2023-02-11T14:21:30.136Z,33.09
2023-02-11T14:23:56.792Z,32.73
2023-02-11T14:26:23.227Z,32.90
2023-02-11T14:28:49.700Z,33.60
2023-02-11T14:31:16.231Z,33.34
2023-02-11T14:33:42.823Z,33.29
2023-02-11T14:36:09.324Z,33.92
2023-02-11T14:38:36.142Z,33.97
2023-02-11T14:41:02.669Z,32.98
2023-02-11T14:43:29.701Z,33.20
2023-02-11T14:45:56.376Z,32.96
2023-02-11T14:48:23.213Z,33.22
2023-02-11T14:50:50.893Z,32.46
2023-02-11T14:53:17.608Z,32.43
2023-02-11T14:55:44.128Z,32.48
2023-02-11T14:58:10.695Z,31.35
2023-02-11T15:00:37.179Z,34.14
2023-02-11T15:03:03.796Z,35.54
2023-02-11T15:05:30.315Z,33.36
2023-02-11T15:07:58.089Z,34.81
2023-02-11T15:10:24.537Z,35.30
2023-02-11T15:12:51.078Z,36.01
2023-02-11T15:15:17.604Z,35.56
2023-02-11T15:17:44.143Z,35.14
2023-02-11T15:20:16.429Z,34.31
2023-02-11T15:22:42.945Z,34.77
2023-02-11T15:25:09.483Z,35.46
2023-02-11T15:27:35.916Z,35.21
2023-02-11T15:30:02.578Z,35.24
2023-02-11T15:32:31.276Z,36.27
2023-02-11T15:34:57.934Z,35.91
2023-02-11T15:37:24.521Z,36.67
2023-02-11T15:39:51.048Z,36.59
2023-02-11T15:42:17.631Z,35.48
2023-02-11T15:44:44.138Z,35.15
2023-02-11T15:47:10.659Z,34.19
2023-02-11T15:49:37.261Z,33.51
2023-02-11T15:52:03.675Z,33.56
2023-02-11T15:54:31.755Z,33.71
2023-02-11T15:56:58.302Z,33.45
2023-02-11T15:59:24.767Z,33.30
2023-02-11T16:01:51.305Z,32.38
2023-02-11T16:04:17.880Z,32.77
2023-02-11T16:06:45.619Z,32.15
2023-02-11T16:09:12.002Z,31.97
2023-02-11T16:11:38.408Z,30.80
2023-02-11T16:14:55.764Z,31.52
2023-02-11T16:16:56.189Z,31.12
2023-02-11T16:19:25.323Z,29.74
2023-02-11T16:21:52.235Z,30.39
2023-02-11T16:24:18.867Z,29.24
2023-02-11T16:26:49.690Z,29.43
2023-02-11T16:29:20.244Z,30.38
2023-02-11T16:32:09.361Z,29.31
2023-02-11T16:34:33.931Z,29.80
2023-02-11T16:37:01.423Z,29.54
2023-02-11T16:39:28.098Z,29.05
2023-02-11T16:42:02.244Z,29.21
2023-02-11T16:44:28.775Z,29.04
2023-02-11T16:46:55.609Z,28.80
2023-02-11T16:49:22.180Z,29.25
2023-02-11T16:51:48.740Z,29.14
2023-02-11T16:54:15.132Z,29.01
2023-02-11T16:56:42.596Z,28.02
2023-02-11T16:59:09.120Z,27.99
2023-02-11T17:01:35.605Z,28.11
2023-02-11T17:04:02.189Z,27.53
2023-02-11T17:06:29.779Z,27.51
2023-02-11T17:08:56.316Z,27.90
2023-02-11T17:11:22.780Z,28.02
2023-02-11T17:13:49.253Z,29.10
2023-02-11T17:16:15.768Z,28.56
2023-02-11T17:18:42.326Z,29.17
2023-02-11T17:21:08.784Z,36.02
2023-02-11T17:23:35.340Z,30.76
2023-02-11T17:26:01.880Z,28.69
2023-02-11T17:28:28.390Z,28.02
2023-02-11T17:30:55.026Z,27.14
2023-02-11T17:33:21.615Z,25.57
2023-02-11T17:35:51.127Z,25.47
2023-02-11T17:38:17.839Z,29.73
2023-02-11T17:40:44.338Z,29.22
2023-02-11T17:43:11.015Z,30.17
2023-02-11T17:45:37.581Z,29.13
2023-02-11T17:48:04.198Z,49.43
2023-02-11T17:50:30.683Z,34.96
2023-02-11T17:52:57.206Z,30.34
2023-02-11T17:55:23.670Z,28.55
2023-02-11T17:57:50.351Z,28.00
2023-02-11T18:00:17.785Z,31.24
2023-02-11T18:02:44.421Z,29.76
2023-02-11T18:05:13.730Z,27.24
2023-02-11T18:07:40.195Z,27.06
2023-02-11T18:10:06.685Z,24.34
2023-02-11T18:12:33.331Z,28.70
2023-02-11T18:14:59.812Z,29.74
2023-02-11T18:17:26.293Z,28.44
2023-02-11T18:19:52.729Z,27.10
2023-02-11T18:22:19.223Z,23.88
2023-02-11T18:24:45.622Z,21.76
2023-02-11T18:27:12.057Z,19.75
2023-02-11T18:29:38.460Z,18.32
2023-02-11T18:32:05.008Z,18.16
2023-02-11T18:34:31.516Z,19.18
2023-02-11T18:36:59.006Z,21.16
2023-02-11T18:39:25.770Z,24.04
2023-02-11T18:41:52.208Z,23.44
2023-02-11T18:44:18.615Z,19.76
2023-02-11T18:46:45.270Z,17.80
2023-02-11T18:49:11.662Z,18.01
2023-02-11T18:51:38.102Z,18.03
2023-02-11T18:54:04.485Z,17.61
2023-02-11T18:56:30.897Z,17.60
2023-02-11T18:58:57.318Z,21.46
2023-02-11T19:01:24.203Z,58.82
2023-02-11T19:03:50.801Z,48.91
2023-02-11T19:06:17.218Z,34.95
2023-02-11T19:08:43.599Z,35.52
2023-02-11T19:11:10.085Z,26.99
2023-02-11T19:13:37.474Z,20.81
2023-02-11T19:16:03.878Z,18.91
2023-02-11T19:18:30.320Z,17.95
2023-02-11T19:20:59.550Z,17.45
2023-02-11T19:23:25.950Z,15.80
2023-02-11T19:25:52.594Z,18.76
2023-02-11T19:28:19.253Z,18.78
2023-02-11T19:30:45.943Z,18.21
2023-02-11T19:33:12.445Z,19.93
2023-02-11T19:35:38.858Z,18.40
2023-02-11T19:38:05.654Z,15.67
2023-02-11T19:40:32.116Z,14.99
2023-02-11T19:42:58.568Z,15.14
2023-02-11T19:45:26.944Z,25.68
2023-02-11T19:47:53.609Z,38.57
2023-02-11T19:50:22.039Z,28.53
2023-02-11T19:52:48.476Z,18.06
2023-02-11T19:55:17.215Z,14.51
2023-02-11T19:57:43.695Z,17.02
2023-02-11T20:00:10.113Z,21.61
2023-02-11T20:02:36.506Z,23.27
2023-02-11T20:05:02.945Z,28.09
2023-02-11T20:07:29.313Z,34.53
2023-02-11T20:09:55.954Z,31.73
2023-02-11T20:12:22.386Z,27.96
2023-02-11T20:14:53.057Z,38.66
2023-02-11T20:17:19.477Z,28.02
2023-02-11T20:19:45.879Z,30.72
2023-02-11T20:22:14.975Z,32.68
2023-02-11T20:24:41.343Z,31.90
2023-02-11T20:27:07.747Z,33.69
2023-02-11T20:29:34.179Z,34.17
2023-02-11T20:32:00.866Z,29.66
2023-02-11T20:34:27.359Z,28.42
2023-02-11T20:36:53.793Z,26.47
2023-02-11T20:39:20.252Z,26.97
2023-02-11T20:41:46.782Z,24.85
2023-02-11T20:44:13.249Z,22.59
2023-02-11T20:46:39.761Z,21.93
2023-02-11T20:49:06.192Z,20.80
2023-02-11T20:51:32.603Z,21.31
2023-02-11T20:53:58.944Z,23.49
2023-02-11T20:56:25.397Z,26.24
2023-02-11T20:58:53.105Z,26.70
2023-02-11T21:01:19.494Z,27.70
2023-02-11T21:03:45.938Z,31.16
2023-02-11T21:06:12.355Z,30.57
2023-02-11T21:08:38.752Z,30.69
2023-02-11T21:11:05.221Z,30.03
2023-02-11T21:13:31.686Z,30.14
2023-02-11T21:15:58.606Z,26.01
2023-02-11T21:18:27.367Z,18.48
2023-02-11T21:20:53.797Z,17.43
2023-02-11T21:23:20.235Z,15.30
2023-02-11T21:25:46.663Z,12.92
2023-02-11T21:28:13.108Z,12.84
2023-02-11T21:30:39.579Z,12.33
2023-02-11T21:33:05.984Z,12.11
2023-02-11T21:35:32.432Z,11.83
2023-02-11T21:38:00.099Z,12.40
2023-02-11T21:40:26.480Z,12.28
2023-02-11T21:42:52.844Z,11.47
2023-02-11T21:45:19.340Z,11.28
2023-02-11T21:47:54.012Z,10.73
2023-02-11T21:50:20.474Z,10.70
2023-02-11T21:52:48.987Z,11.61
2023-02-11T21:55:15.385Z,12.57
2023-02-11T21:57:41.923Z,13.64
2023-02-11T22:00:08.425Z,14.27
2023-02-11T22:02:34.881Z,14.33
2023-02-11T22:05:01.465Z,14.98
2023-02-11T22:07:27.879Z,14.18
2023-02-11T22:09:54.266Z,13.37
2023-02-11T22:12:21.082Z,13.31
2023-02-11T22:14:47.453Z,13.61
2023-02-11T22:17:14.404Z,14.50
2023-02-11T22:19:40.882Z,15.73
2023-02-11T22:22:07.270Z,20.63
2023-02-11T22:24:33.816Z,32.27
2023-02-11T22:27:01.522Z,27.40
2023-02-11T22:29:27.952Z,26.26
2023-02-11T22:31:54.510Z,27.65
2023-02-11T22:34:20.978Z,28.21
2023-02-11T22:36:47.463Z,23.00
2023-02-11T22:39:13.889Z,21.57
2023-02-11T22:41:40.421Z,20.22
2023-02-11T22:44:12.575Z,18.78
2023-02-11T22:46:39.026Z,16.66
2023-02-11T22:49:05.462Z,15.06
2023-02-11T22:51:33.298Z,16.33
2023-02-11T22:54:01.791Z,16.41
2023-02-11T22:56:28.248Z,15.06
2023-02-11T22:58:54.714Z,15.04
2023-02-11T23:01:21.365Z,15.88
2023-02-11T23:03:47.767Z,16.19
2023-02-11T23:06:14.217Z,15.87
2023-02-11T23:08:40.820Z,15.12
2023-02-11T23:11:07.263Z,13.79
2023-02-11T23:13:33.762Z,13.38
2023-02-11T23:16:00.450Z,15.23
2023-02-11T23:18:28.327Z,17.40
2023-02-11T23:20:54.770Z,16.29
2023-02-11T23:23:21.381Z,13.41
2023-02-11T23:25:47.836Z,10.97
2023-02-11T23:28:14.344Z,10.34
2023-02-11T23:30:40.765Z,9.95
2023-02-11T23:33:07.217Z,10.82
2023-02-11T23:35:33.675Z,10.63
2023-02-11T23:38:00.072Z,11.13
2023-02-11T23:40:26.508Z,11.94
2023-02-11T23:42:52.930Z,15.87
2023-02-11T23:45:19.415Z,16.76
2023-02-11T23:47:45.913Z,17.10
2023-02-11T23:50:12.400Z,14.61
2023-02-11T23:52:39.017Z,15.93
2023-02-11T23:55:05.382Z,16.31
2023-02-11T23:57:31.836Z,16.98
2023-02-11T23:59:58.215Z,18.25
